Aérodrome :
LOGIN :

S'inscrire | Disclaimer

   EN    FR    IT 

 










Légende :    VFR   VFR Marginal   IFR   IFR Intensif   IFR Très Intensif
Visi : 
Plafond : 
>= 8 km
>= 3000ft
5 à 8 km
1000 à 3000 ft
1500m à 5 km
500 à 1000 ft
800 à 1500m
200 à 500 ft
< 800m
< 200 ft
Symboles :   Orages  Brouillard  Fortes neiges  Fortes précipitations  Vent > 20 kt
SIGMETs :   Divers  Orages  Givrage  Turbulence  Onde Orograph.  Cendres Volcan.







- Altitude de l'aérodrome : 40 ft
- Code IATA : RMI


LIPR - Federico Fellini Int. Rimini

DERNIER METAR :
  • 250615Z 18002KT 9999 FEW030 12/11 Q1015

METARs EXPIRÉS :
  • 250545Z 17002KT 9999 FEW030 11/10 Q1015
  • 250515Z 00000KT CAVOK 11/10 Q1015
  • 250445Z 23002KT CAVOK 11/10 Q1015
  • 250415Z 20002KT CAVOK 11/10 Q1015
  • 250345Z 00000KT CAVOK 11/10 Q1015

TAF TAF LIPR
Valide du 25 à 06h jusqu'au 25 à 15h UTC


250500Z 2506/2515 22005KT CAVOK
BECMG 2510/2512 14010KT
Pas de NOTAMs connus pour ce terrain.



MET'MAP, la Météo Aéronautique d'un coup d'oeil ! - Copyright ORBIFLY Décembre 2007 - Disclaimer

ORBIFLY MET'MAP TEAM :

Programmation & Développement : Alexandra Zaïnal
Conception & Développement : Baudouin d'Aumeries
Co-Programmation & Développement : Marc-Olivier Méhu
Soutien technique & logistique : Manuel Goepfert

Contact : metmap@orbifly.com




SOURCES & CREDITS :

   NOAA